sensor_id;sensor_type;location;lat;lon;timestamp;P1;durP1;ratioP1;P2;durP2;ratioP2
19854;SDS011;10088;47.946;2.532;2022-12-08T00:01:14;43.83;;;18.10;;
19854;SDS011;10088;47.946;2.532;2022-12-08T00:03:40;47.07;;;20.33;;
19854;SDS011;10088;47.946;2.532;2022-12-08T00:06:06;47.90;;;18.03;;
19854;SDS011;10088;47.946;2.532;2022-12-08T00:08:50;48.17;;;18.43;;
19854;SDS011;10088;47.946;2.532;2022-12-08T00:11:34;43.17;;;18.27;;
19854;SDS011;10088;47.946;2.532;2022-12-08T00:13:59;44.50;;;18.73;;
19854;SDS011;10088;47.946;2.532;2022-12-08T00:16:24;48.47;;;18.73;;
19854;SDS011;10088;47.946;2.532;2022-12-08T00:18:50;40.87;;;18.17;;
19854;SDS011;10088;47.946;2.532;2022-12-08T00:21:15;46.97;;;18.67;;
19854;SDS011;10088;47.946;2.532;2022-12-08T00:23:40;36.83;;;17.50;;
19854;SDS011;10088;47.946;2.532;2022-12-08T00:26:06;37.37;;;18.37;;
19854;SDS011;10088;47.946;2.532;2022-12-08T00:28:32;42.73;;;19.40;;
19854;SDS011;10088;47.946;2.532;2022-12-08T00:30:58;38.80;;;18.83;;
19854;SDS011;10088;47.946;2.532;2022-12-08T00:33:23;40.83;;;18.17;;
19854;SDS011;10088;47.946;2.532;2022-12-08T00:35:49;40.47;;;18.97;;
19854;SDS011;10088;47.946;2.532;2022-12-08T00:38:14;45.00;;;18.03;;
19854;SDS011;10088;47.946;2.532;2022-12-08T00:40:46;36.33;;;16.90;;
19854;SDS011;10088;47.946;2.532;2022-12-08T00:43:12;45.90;;;17.77;;
19854;SDS011;10088;47.946;2.532;2022-12-08T00:45:37;39.60;;;16.90;;
19854;SDS011;10088;47.946;2.532;2022-12-08T00:48:02;38.03;;;17.70;;
19854;SDS011;10088;47.946;2.532;2022-12-08T00:50:28;35.23;;;17.27;;
19854;SDS011;10088;47.946;2.532;2022-12-08T00:52:53;33.60;;;17.07;;
19854;SDS011;10088;47.946;2.532;2022-12-08T00:55:18;32.73;;;16.80;;
19854;SDS011;10088;47.946;2.532;2022-12-08T00:57:44;35.47;;;18.27;;
19854;SDS011;10088;47.946;2.532;2022-12-08T01:00:09;35.00;;;17.27;;
19854;SDS011;10088;47.946;2.532;2022-12-08T01:02:34;35.60;;;17.80;;
19854;SDS011;10088;47.946;2.532;2022-12-08T01:05:00;33.00;;;16.33;;
19854;SDS011;10088;47.946;2.532;2022-12-08T01:07:25;30.27;;;17.40;;
19854;SDS011;10088;47.946;2.532;2022-12-08T01:09:50;33.87;;;17.07;;
19854;SDS011;10088;47.946;2.532;2022-12-08T01:12:16;28.70;;;15.50;;
19854;SDS011;10088;47.946;2.532;2022-12-08T01:14:42;34.47;;;16.20;;
19854;SDS011;10088;47.946;2.532;2022-12-08T01:17:07;33.27;;;16.27;;
19854;SDS011;10088;47.946;2.532;2022-12-08T01:19:32;33.47;;;16.93;;
19854;SDS011;10088;47.946;2.532;2022-12-08T01:21:58;33.13;;;17.00;;
19854;SDS011;10088;47.946;2.532;2022-12-08T01:24:23;34.07;;;17.40;;
19854;SDS011;10088;47.946;2.532;2022-12-08T01:26:48;34.60;;;16.53;;
19854;SDS011;10088;47.946;2.532;2022-12-08T01:29:14;31.80;;;16.43;;
19854;SDS011;10088;47.946;2.532;2022-12-08T01:31:40;40.17;;;17.60;;
19854;SDS011;10088;47.946;2.532;2022-12-08T01:34:05;35.40;;;17.73;;
19854;SDS011;10088;47.946;2.532;2022-12-08T01:36:31;33.17;;;17.70;;
19854;SDS011;10088;47.946;2.532;2022-12-08T01:38:58;30.30;;;16.50;;
19854;SDS011;10088;47.946;2.532;2022-12-08T01:41:25;32.43;;;17.87;;
19854;SDS011;10088;47.946;2.532;2022-12-08T01:46:18;32.80;;;16.83;;
19854;SDS011;10088;47.946;2.532;2022-12-08T01:48:44;31.97;;;18.03;;
19854;SDS011;10088;47.946;2.532;2022-12-08T01:51:09;34.60;;;17.60;;
19854;SDS011;10088;47.946;2.532;2022-12-08T01:53:34;36.43;;;17.03;;
19854;SDS011;10088;47.946;2.532;2022-12-08T01:56:02;37.47;;;18.50;;
19854;SDS011;10088;47.946;2.532;2022-12-08T01:58:35;30.00;;;16.87;;
19854;SDS011;10088;47.946;2.532;2022-12-08T02:01:01;29.93;;;17.03;;
19854;SDS011;10088;47.946;2.532;2022-12-08T02:05:55;34.80;;;17.00;;
19854;SDS011;10088;47.946;2.532;2022-12-08T02:08:21;29.63;;;16.60;;
19854;SDS011;10088;47.946;2.532;2022-12-08T02:10:47;33.33;;;17.10;;
19854;SDS011;10088;47.946;2.532;2022-12-08T02:13:13;31.43;;;17.07;;
19854;SDS011;10088;47.946;2.532;2022-12-08T02:18:14;44.33;;;23.97;;
19854;SDS011;10088;47.946;2.532;2022-12-08T02:30:53;36.03;;;17.87;;
19854;SDS011;10088;47.946;2.532;2022-12-08T02:41:16;28.27;;;17.30;;
19854;SDS011;10088;47.946;2.532;2022-12-08T02:44:16;33.07;;;17.60;;
19854;SDS011;10088;47.946;2.532;2022-12-08T02:46:36;30.80;;;16.60;;
19854;SDS011;10088;47.946;2.532;2022-12-08T02:49:02;30.90;;;17.33;;
19854;SDS011;10088;47.946;2.532;2022-12-08T02:51:29;74.27;;;40.73;;
19854;SDS011;10088;47.946;2.532;2022-12-08T02:53:54;34.90;;;18.90;;
19854;SDS011;10088;47.946;2.532;2022-12-08T03:06:34;27.73;;;18.73;;
19854;SDS011;10088;47.946;2.532;2022-12-08T03:09:09;31.63;;;18.73;;
19854;SDS011;10088;47.946;2.532;2022-12-08T03:11:39;29.70;;;17.00;;
19854;SDS011;10088;47.946;2.532;2022-12-08T03:14:07;23.23;;;15.00;;
19854;SDS011;10088;47.946;2.532;2022-12-08T03:16:35;24.40;;;15.93;;
19854;SDS011;10088;47.946;2.532;2022-12-08T03:19:05;26.63;;;15.97;;
19854;SDS011;10088;47.946;2.532;2022-12-08T03:21:33;24.13;;;15.03;;
19854;SDS011;10088;47.946;2.532;2022-12-08T03:23:59;27.47;;;16.37;;
19854;SDS011;10088;47.946;2.532;2022-12-08T03:26:28;22.07;;;15.57;;
19854;SDS011;10088;47.946;2.532;2022-12-08T03:28:54;30.57;;;18.00;;
19854;SDS011;10088;47.946;2.532;2022-12-08T03:31:19;38.20;;;23.67;;
19854;SDS011;10088;47.946;2.532;2022-12-08T03:33:46;46.83;;;28.87;;
19854;SDS011;10088;47.946;2.532;2022-12-08T03:36:14;20.20;;;13.60;;
19854;SDS011;10088;47.946;2.532;2022-12-08T03:38:44;18.57;;;12.90;;
19854;SDS011;10088;47.946;2.532;2022-12-08T03:41:09;18.73;;;11.70;;
19854;SDS011;10088;47.946;2.532;2022-12-08T03:43:48;17.47;;;11.43;;
19854;SDS011;10088;47.946;2.532;2022-12-08T03:46:17;13.83;;;9.47;;
19854;SDS011;10088;47.946;2.532;2022-12-08T03:48:43;11.17;;;8.57;;
19854;SDS011;10088;47.946;2.532;2022-12-08T03:51:08;11.87;;;7.53;;
19854;SDS011;10088;47.946;2.532;2022-12-08T03:53:34;14.90;;;9.20;;
19854;SDS011;10088;47.946;2.532;2022-12-08T03:55:59;13.27;;;8.37;;
19854;SDS011;10088;47.946;2.532;2022-12-08T03:58:24;12.90;;;9.63;;
19854;SDS011;10088;47.946;2.532;2022-12-08T04:00:50;15.70;;;10.43;;
19854;SDS011;10088;47.946;2.532;2022-12-08T04:03:15;20.77;;;11.10;;
19854;SDS011;10088;47.946;2.532;2022-12-08T04:05:40;14.13;;;9.63;;
19854;SDS011;10088;47.946;2.532;2022-12-08T04:08:06;19.43;;;12.27;;
19854;SDS011;10088;47.946;2.532;2022-12-08T04:10:31;15.57;;;10.47;;
19854;SDS011;10088;47.946;2.532;2022-12-08T04:12:56;13.20;;;9.10;;
19854;SDS011;10088;47.946;2.532;2022-12-08T04:15:22;12.73;;;8.63;;
19854;SDS011;10088;47.946;2.532;2022-12-08T04:17:47;11.40;;;7.83;;
19854;SDS011;10088;47.946;2.532;2022-12-08T04:20:12;10.30;;;6.90;;
19854;SDS011;10088;47.946;2.532;2022-12-08T04:22:38;8.47;;;6.10;;
19854;SDS011;10088;47.946;2.532;2022-12-08T04:25:03;12.37;;;6.80;;
19854;SDS011;10088;47.946;2.532;2022-12-08T04:27:28;9.07;;;5.67;;
19854;SDS011;10088;47.946;2.532;2022-12-08T04:29:54;8.27;;;5.60;;
19854;SDS011;10088;47.946;2.532;2022-12-08T04:32:19;7.03;;;4.70;;
19854;SDS011;10088;47.946;2.532;2022-12-08T04:34:44;6.73;;;4.07;;
19854;SDS011;10088;47.946;2.532;2022-12-08T04:37:10;8.00;;;4.30;;
19854;SDS011;10088;47.946;2.532;2022-12-08T04:39:35;5.07;;;3.57;;
19854;SDS011;10088;47.946;2.532;2022-12-08T04:42:00;6.73;;;3.90;;
19854;SDS011;10088;47.946;2.532;2022-12-08T04:44:25;6.23;;;3.70;;
19854;SDS011;10088;47.946;2.532;2022-12-08T04:46:51;5.43;;;4.10;;
19854;SDS011;10088;47.946;2.532;2022-12-08T04:49:16;5.80;;;4.47;;
19854;SDS011;10088;47.946;2.532;2022-12-08T04:51:41;6.23;;;4.27;;
19854;SDS011;10088;47.946;2.532;2022-12-08T04:54:07;6.30;;;4.40;;
19854;SDS011;10088;47.946;2.532;2022-12-08T04:56:32;7.87;;;4.70;;
19854;SDS011;10088;47.946;2.532;2022-12-08T04:58:57;7.37;;;5.10;;
19854;SDS011;10088;47.946;2.532;2022-12-08T05:01:23;10.47;;;8.20;;
19854;SDS011;10088;47.946;2.532;2022-12-08T05:03:48;8.00;;;5.37;;
19854;SDS011;10088;47.946;2.532;2022-12-08T05:06:13;7.53;;;4.87;;
19854;SDS011;10088;47.946;2.532;2022-12-08T05:08:39;8.10;;;4.57;;
19854;SDS011;10088;47.946;2.532;2022-12-08T05:11:06;6.73;;;4.73;;
19854;SDS011;10088;47.946;2.532;2022-12-08T05:13:31;8.10;;;6.43;;
19854;SDS011;10088;47.946;2.532;2022-12-08T05:16:04;8.37;;;5.37;;
19854;SDS011;10088;47.946;2.532;2022-12-08T05:18:30;10.33;;;5.83;;
19854;SDS011;10088;47.946;2.532;2022-12-08T05:20:55;14.63;;;9.73;;
19854;SDS011;10088;47.946;2.532;2022-12-08T05:23:21;6.80;;;5.53;;
19854;SDS011;10088;47.946;2.532;2022-12-08T05:25:46;7.27;;;5.00;;
19854;SDS011;10088;47.946;2.532;2022-12-08T05:28:11;6.17;;;5.20;;
19854;SDS011;10088;47.946;2.532;2022-12-08T05:30:37;6.37;;;4.67;;
19854;SDS011;10088;47.946;2.532;2022-12-08T05:33:02;6.30;;;4.70;;
19854;SDS011;10088;47.946;2.532;2022-12-08T05:35:27;9.90;;;6.57;;
19854;SDS011;10088;47.946;2.532;2022-12-08T05:37:53;6.27;;;5.37;;
19854;SDS011;10088;47.946;2.532;2022-12-08T05:40:18;6.87;;;4.77;;
19854;SDS011;10088;47.946;2.532;2022-12-08T05:42:44;8.50;;;4.83;;
19854;SDS011;10088;47.946;2.532;2022-12-08T05:45:09;5.53;;;4.87;;
19854;SDS011;10088;47.946;2.532;2022-12-08T05:47:34;15.53;;;10.17;;
19854;SDS011;10088;47.946;2.532;2022-12-08T05:50:00;12.03;;;7.83;;
19854;SDS011;10088;47.946;2.532;2022-12-08T05:52:25;9.73;;;6.97;;
19854;SDS011;10088;47.946;2.532;2022-12-08T05:54:51;12.03;;;7.50;;
19854;SDS011;10088;47.946;2.532;2022-12-08T05:57:16;11.37;;;8.10;;
19854;SDS011;10088;47.946;2.532;2022-12-08T05:59:41;16.20;;;10.73;;
19854;SDS011;10088;47.946;2.532;2022-12-08T06:02:06;18.93;;;12.47;;
19854;SDS011;10088;47.946;2.532;2022-12-08T06:04:32;9.13;;;6.77;;
19854;SDS011;10088;47.946;2.532;2022-12-08T06:06:58;15.50;;;10.83;;
19854;SDS011;10088;47.946;2.532;2022-12-08T06:09:23;12.57;;;9.20;;
19854;SDS011;10088;47.946;2.532;2022-12-08T06:11:48;7.93;;;6.07;;
19854;SDS011;10088;47.946;2.532;2022-12-08T06:14:14;10.00;;;5.83;;
19854;SDS011;10088;47.946;2.532;2022-12-08T06:16:39;7.80;;;5.60;;
19854;SDS011;10088;47.946;2.532;2022-12-08T06:19:05;7.73;;;5.93;;
19854;SDS011;10088;47.946;2.532;2022-12-08T06:21:30;6.40;;;5.33;;
19854;SDS011;10088;47.946;2.532;2022-12-08T06:23:55;17.47;;;11.60;;
19854;SDS011;10088;47.946;2.532;2022-12-08T06:26:21;9.03;;;5.73;;
19854;SDS011;10088;47.946;2.532;2022-12-08T06:28:47;15.30;;;10.23;;
19854;SDS011;10088;47.946;2.532;2022-12-08T06:31:14;12.03;;;8.40;;
19854;SDS011;10088;47.946;2.532;2022-12-08T06:33:40;7.10;;;5.50;;
19854;SDS011;10088;47.946;2.532;2022-12-08T06:36:05;8.67;;;5.97;;
19854;SDS011;10088;47.946;2.532;2022-12-08T06:38:31;8.87;;;6.13;;
19854;SDS011;10088;47.946;2.532;2022-12-08T06:40:57;8.30;;;6.10;;
19854;SDS011;10088;47.946;2.532;2022-12-08T06:43:22;8.23;;;4.90;;
19854;SDS011;10088;47.946;2.532;2022-12-08T06:45:47;7.20;;;4.87;;
19854;SDS011;10088;47.946;2.532;2022-12-08T06:48:13;5.97;;;5.07;;
19854;SDS011;10088;47.946;2.532;2022-12-08T06:50:38;8.63;;;5.20;;
19854;SDS011;10088;47.946;2.532;2022-12-08T06:53:03;7.67;;;4.47;;
19854;SDS011;10088;47.946;2.532;2022-12-08T06:55:29;6.83;;;4.27;;
19854;SDS011;10088;47.946;2.532;2022-12-08T06:57:54;6.40;;;4.33;;
19854;SDS011;10088;47.946;2.532;2022-12-08T07:00:19;7.80;;;4.30;;
19854;SDS011;10088;47.946;2.532;2022-12-08T07:02:45;7.93;;;4.00;;
19854;SDS011;10088;47.946;2.532;2022-12-08T07:05:10;5.93;;;4.33;;
19854;SDS011;10088;47.946;2.532;2022-12-08T07:07:35;5.23;;;4.00;;
19854;SDS011;10088;47.946;2.532;2022-12-08T07:10:01;6.23;;;4.20;;
19854;SDS011;10088;47.946;2.532;2022-12-08T07:12:26;5.13;;;4.07;;
19854;SDS011;10088;47.946;2.532;2022-12-08T07:14:51;6.83;;;4.70;;
19854;SDS011;10088;47.946;2.532;2022-12-08T07:17:16;5.33;;;4.30;;
19854;SDS011;10088;47.946;2.532;2022-12-08T07:19:42;6.00;;;4.53;;
19854;SDS011;10088;47.946;2.532;2022-12-08T07:22:07;4.33;;;3.93;;
19854;SDS011;10088;47.946;2.532;2022-12-08T07:24:32;8.87;;;4.50;;
19854;SDS011;10088;47.946;2.532;2022-12-08T07:26:58;25.67;;;11.87;;
19854;SDS011;10088;47.946;2.532;2022-12-08T07:29:23;11.40;;;6.23;;
19854;SDS011;10088;47.946;2.532;2022-12-08T07:31:48;12.03;;;6.50;;
19854;SDS011;10088;47.946;2.532;2022-12-08T07:34:14;11.50;;;6.80;;
19854;SDS011;10088;47.946;2.532;2022-12-08T07:36:39;6.83;;;4.93;;
19854;SDS011;10088;47.946;2.532;2022-12-08T07:39:04;11.20;;;5.30;;
19854;SDS011;10088;47.946;2.532;2022-12-08T07:41:30;9.13;;;5.63;;
19854;SDS011;10088;47.946;2.532;2022-12-08T07:43:55;6.97;;;5.13;;
19854;SDS011;10088;47.946;2.532;2022-12-08T07:46:21;6.17;;;4.77;;
19854;SDS011;10088;47.946;2.532;2022-12-08T07:48:47;5.97;;;4.80;;
19854;SDS011;10088;47.946;2.532;2022-12-08T07:51:13;5.23;;;4.27;;
19854;SDS011;10088;47.946;2.532;2022-12-08T07:53:39;7.20;;;5.30;;
19854;SDS011;10088;47.946;2.532;2022-12-08T07:56:05;9.50;;;6.53;;
19854;SDS011;10088;47.946;2.532;2022-12-08T07:58:31;8.83;;;6.80;;
19854;SDS011;10088;47.946;2.532;2022-12-08T08:00:56;32.70;;;17.17;;
19854;SDS011;10088;47.946;2.532;2022-12-08T08:03:21;9.83;;;6.20;;
19854;SDS011;10088;47.946;2.532;2022-12-08T08:05:47;12.20;;;7.50;;
19854;SDS011;10088;47.946;2.532;2022-12-08T08:08:14;12.70;;;7.30;;
19854;SDS011;10088;47.946;2.532;2022-12-08T08:10:39;8.67;;;6.33;;
19854;SDS011;10088;47.946;2.532;2022-12-08T08:13:04;9.20;;;6.03;;
19854;SDS011;10088;47.946;2.532;2022-12-08T08:15:30;12.67;;;8.23;;
19854;SDS011;10088;47.946;2.532;2022-12-08T08:17:55;12.20;;;7.07;;
19854;SDS011;10088;47.946;2.532;2022-12-08T08:20:20;12.40;;;6.80;;
19854;SDS011;10088;47.946;2.532;2022-12-08T08:22:46;10.10;;;6.03;;
19854;SDS011;10088;47.946;2.532;2022-12-08T08:25:12;8.13;;;6.20;;
19854;SDS011;10088;47.946;2.532;2022-12-08T08:27:37;9.47;;;5.87;;
19854;SDS011;10088;47.946;2.532;2022-12-08T08:30:04;7.77;;;6.23;;
19854;SDS011;10088;47.946;2.532;2022-12-08T08:32:33;8.80;;;6.10;;
19854;SDS011;10088;47.946;2.532;2022-12-08T08:34:58;10.13;;;6.27;;
19854;SDS011;10088;47.946;2.532;2022-12-08T08:37:23;6.93;;;5.10;;
19854;SDS011;10088;47.946;2.532;2022-12-08T08:39:49;7.33;;;5.63;;
19854;SDS011;10088;47.946;2.532;2022-12-08T08:42:15;9.30;;;5.87;;
19854;SDS011;10088;47.946;2.532;2022-12-08T08:44:40;6.87;;;5.77;;
19854;SDS011;10088;47.946;2.532;2022-12-08T08:47:05;9.17;;;5.70;;
19854;SDS011;10088;47.946;2.532;2022-12-08T08:49:31;7.30;;;5.10;;
19854;SDS011;10088;47.946;2.532;2022-12-08T08:51:56;9.43;;;6.07;;
19854;SDS011;10088;47.946;2.532;2022-12-08T08:54:22;7.63;;;5.87;;
19854;SDS011;10088;47.946;2.532;2022-12-08T08:56:47;6.97;;;4.87;;
19854;SDS011;10088;47.946;2.532;2022-12-08T08:59:12;13.20;;;7.47;;
19854;SDS011;10088;47.946;2.532;2022-12-08T09:01:38;5.97;;;5.17;;
19854;SDS011;10088;47.946;2.532;2022-12-08T09:04:03;8.27;;;5.30;;
19854;SDS011;10088;47.946;2.532;2022-12-08T09:06:28;8.87;;;5.77;;
19854;SDS011;10088;47.946;2.532;2022-12-08T09:08:54;8.23;;;5.77;;
19854;SDS011;10088;47.946;2.532;2022-12-08T09:11:19;4.83;;;3.90;;
19854;SDS011;10088;47.946;2.532;2022-12-08T09:13:48;5.33;;;4.20;;
19854;SDS011;10088;47.946;2.532;2022-12-08T09:16:13;4.80;;;3.97;;
19854;SDS011;10088;47.946;2.532;2022-12-08T09:18:39;4.53;;;3.40;;
19854;SDS011;10088;47.946;2.532;2022-12-08T09:21:05;4.20;;;3.40;;
19854;SDS011;10088;47.946;2.532;2022-12-08T09:23:30;4.73;;;3.27;;
19854;SDS011;10088;47.946;2.532;2022-12-08T09:25:56;4.80;;;3.00;;
19854;SDS011;10088;47.946;2.532;2022-12-08T09:28:21;4.43;;;3.73;;
19854;SDS011;10088;47.946;2.532;2022-12-08T09:30:46;5.90;;;4.43;;
19854;SDS011;10088;47.946;2.532;2022-12-08T09:33:11;6.40;;;4.60;;
19854;SDS011;10088;47.946;2.532;2022-12-08T09:35:37;4.90;;;4.20;;
19854;SDS011;10088;47.946;2.532;2022-12-08T09:38:02;5.00;;;3.97;;
19854;SDS011;10088;47.946;2.532;2022-12-08T09:40:28;5.80;;;4.37;;
19854;SDS011;10088;47.946;2.532;2022-12-08T09:43:01;5.27;;;4.13;;
19854;SDS011;10088;47.946;2.532;2022-12-08T09:45:32;4.33;;;3.57;;
19854;SDS011;10088;47.946;2.532;2022-12-08T09:48:04;5.93;;;4.07;;
19854;SDS011;10088;47.946;2.532;2022-12-08T09:50:33;4.87;;;3.93;;
19854;SDS011;10088;47.946;2.532;2022-12-08T09:53:03;4.70;;;3.87;;
19854;SDS011;10088;47.946;2.532;2022-12-08T09:56:14;5.47;;;4.37;;
19854;SDS011;10088;47.946;2.532;2022-12-08T10:00:57;4.73;;;3.93;;
19854;SDS011;10088;47.946;2.532;2022-12-08T10:03:23;5.60;;;3.70;;
19854;SDS011;10088;47.946;2.532;2022-12-08T10:05:56;6.57;;;4.47;;
19854;SDS011;10088;47.946;2.532;2022-12-08T10:08:28;4.87;;;4.03;;
19854;SDS011;10088;47.946;2.532;2022-12-08T10:10:58;5.47;;;3.90;;
19854;SDS011;10088;47.946;2.532;2022-12-08T10:18:24;6.90;;;4.63;;
19854;SDS011;10088;47.946;2.532;2022-12-08T10:20:51;6.43;;;4.83;;
19854;SDS011;10088;47.946;2.532;2022-12-08T10:25:53;5.87;;;5.17;;
19854;SDS011;10088;47.946;2.532;2022-12-08T10:28:19;6.40;;;4.07;;
19854;SDS011;10088;47.946;2.532;2022-12-08T10:30:45;6.33;;;4.90;;
19854;SDS011;10088;47.946;2.532;2022-12-08T10:33:20;5.23;;;4.33;;
19854;SDS011;10088;47.946;2.532;2022-12-08T10:35:55;5.43;;;3.97;;
19854;SDS011;10088;47.946;2.532;2022-12-08T10:40:48;5.33;;;4.23;;
19854;SDS011;10088;47.946;2.532;2022-12-08T10:43:16;4.90;;;4.00;;
19854;SDS011;10088;47.946;2.532;2022-12-08T10:45:42;7.00;;;5.13;;
19854;SDS011;10088;47.946;2.532;2022-12-08T10:48:13;6.50;;;5.00;;
19854;SDS011;10088;47.946;2.532;2022-12-08T10:50:41;6.80;;;4.60;;
19854;SDS011;10088;47.946;2.532;2022-12-08T10:55:48;5.57;;;4.50;;
19854;SDS011;10088;47.946;2.532;2022-12-08T11:00:59;6.23;;;4.77;;
19854;SDS011;10088;47.946;2.532;2022-12-08T11:03:29;4.67;;;4.00;;
19854;SDS011;10088;47.946;2.532;2022-12-08T11:05:56;5.97;;;3.60;;
19854;SDS011;10088;47.946;2.532;2022-12-08T11:08:22;5.17;;;4.00;;
19854;SDS011;10088;47.946;2.532;2022-12-08T11:10:47;4.97;;;4.00;;
19854;SDS011;10088;47.946;2.532;2022-12-08T11:13:36;6.73;;;4.00;;
19854;SDS011;10088;47.946;2.532;2022-12-08T11:15:58;5.40;;;4.03;;
19854;SDS011;10088;47.946;2.532;2022-12-08T11:18:35;4.40;;;3.67;;
19854;SDS011;10088;47.946;2.532;2022-12-08T11:28:39;8.07;;;4.50;;
19854;SDS011;10088;47.946;2.532;2022-12-08T11:34:53;6.27;;;4.80;;
19854;SDS011;10088;47.946;2.532;2022-12-08T11:40:43;7.67;;;5.60;;
19854;SDS011;10088;47.946;2.532;2022-12-08T11:59:27;5.70;;;4.30;;
19854;SDS011;10088;47.946;2.532;2022-12-08T12:02:37;6.43;;;4.70;;
19854;SDS011;10088;47.946;2.532;2022-12-08T12:13:12;6.53;;;4.80;;
19854;SDS011;10088;47.946;2.532;2022-12-08T12:20:52;4.90;;;4.07;;
19854;SDS011;10088;47.946;2.532;2022-12-08T12:25:53;6.00;;;3.93;;
19854;SDS011;10088;47.946;2.532;2022-12-08T12:28:19;5.50;;;3.80;;
19854;SDS011;10088;47.946;2.532;2022-12-08T12:33:45;7.00;;;3.90;;
19854;SDS011;10088;47.946;2.532;2022-12-08T12:36:14;6.30;;;3.60;;
19854;SDS011;10088;47.946;2.532;2022-12-08T12:38:43;7.07;;;4.40;;
19854;SDS011;10088;47.946;2.532;2022-12-08T12:41:35;10.60;;;5.93;;
19854;SDS011;10088;47.946;2.532;2022-12-08T12:44:20;11.93;;;6.10;;
19854;SDS011;10088;47.946;2.532;2022-12-08T12:51:58;6.90;;;6.20;;
19854;SDS011;10088;47.946;2.532;2022-12-08T12:54:23;5.60;;;4.00;;
19854;SDS011;10088;47.946;2.532;2022-12-08T12:56:50;5.83;;;4.83;;
19854;SDS011;10088;47.946;2.532;2022-12-08T12:59:20;5.10;;;3.60;;
19854;SDS011;10088;47.946;2.532;2022-12-08T13:01:53;5.17;;;4.30;;
19854;SDS011;10088;47.946;2.532;2022-12-08T13:04:19;3.60;;;3.10;;
19854;SDS011;10088;47.946;2.532;2022-12-08T13:06:52;3.27;;;2.80;;
19854;SDS011;10088;47.946;2.532;2022-12-08T13:09:19;5.10;;;3.57;;
19854;SDS011;10088;47.946;2.532;2022-12-08T13:11:49;4.20;;;3.33;;
19854;SDS011;10088;47.946;2.532;2022-12-08T13:14:31;4.80;;;3.43;;
19854;SDS011;10088;47.946;2.532;2022-12-08T13:16:57;3.80;;;3.00;;
19854;SDS011;10088;47.946;2.532;2022-12-08T13:19:23;5.67;;;4.03;;
19854;SDS011;10088;47.946;2.532;2022-12-08T13:21:49;7.80;;;4.30;;
19854;SDS011;10088;47.946;2.532;2022-12-08T13:26:48;3.77;;;2.97;;
19854;SDS011;10088;47.946;2.532;2022-12-08T13:31:44;10.17;;;6.27;;
19854;SDS011;10088;47.946;2.532;2022-12-08T13:34:18;11.23;;;7.67;;
19854;SDS011;10088;47.946;2.532;2022-12-08T13:39:23;6.20;;;3.63;;
19854;SDS011;10088;47.946;2.532;2022-12-08T13:41:52;5.27;;;3.17;;
19854;SDS011;10088;47.946;2.532;2022-12-08T13:44:21;4.73;;;3.60;;
19854;SDS011;10088;47.946;2.532;2022-12-08T13:46:51;64.03;;;39.00;;
19854;SDS011;10088;47.946;2.532;2022-12-08T13:49:18;19.63;;;13.23;;
19854;SDS011;10088;47.946;2.532;2022-12-08T13:51:47;13.73;;;9.60;;
19854;SDS011;10088;47.946;2.532;2022-12-08T13:56:39;3.10;;;2.80;;
19854;SDS011;10088;47.946;2.532;2022-12-08T13:59:07;2.47;;;2.27;;
19854;SDS011;10088;47.946;2.532;2022-12-08T14:01:33;5.83;;;4.50;;
19854;SDS011;10088;47.946;2.532;2022-12-08T14:04:03;5.13;;;4.23;;
19854;SDS011;10088;47.946;2.532;2022-12-08T14:06:30;18.53;;;14.40;;
19854;SDS011;10088;47.946;2.532;2022-12-08T14:08:59;5.93;;;4.33;;
19854;SDS011;10088;47.946;2.532;2022-12-08T14:11:27;4.33;;;2.80;;
19854;SDS011;10088;47.946;2.532;2022-12-08T14:14:02;3.63;;;2.83;;
19854;SDS011;10088;47.946;2.532;2022-12-08T14:16:31;6.93;;;5.53;;
19854;SDS011;10088;47.946;2.532;2022-12-08T14:19:32;4.57;;;3.80;;
19854;SDS011;10088;47.946;2.532;2022-12-08T14:21:51;15.37;;;10.97;;
19854;SDS011;10088;47.946;2.532;2022-12-08T14:24:17;4.70;;;3.30;;
19854;SDS011;10088;47.946;2.532;2022-12-08T14:26:43;3.67;;;3.10;;
19854;SDS011;10088;47.946;2.532;2022-12-08T14:29:10;3.30;;;3.00;;
19854;SDS011;10088;47.946;2.532;2022-12-08T14:31:35;4.00;;;3.23;;
19854;SDS011;10088;47.946;2.532;2022-12-08T14:34:01;5.47;;;4.23;;
19854;SDS011;10088;47.946;2.532;2022-12-08T14:36:26;7.17;;;5.73;;
19854;SDS011;10088;47.946;2.532;2022-12-08T14:38:53;4.83;;;4.10;;
19854;SDS011;10088;47.946;2.532;2022-12-08T14:41:23;5.43;;;4.00;;
19854;SDS011;10088;47.946;2.532;2022-12-08T14:43:56;7.20;;;3.40;;
19854;SDS011;10088;47.946;2.532;2022-12-08T14:46:24;13.47;;;11.27;;
19854;SDS011;10088;47.946;2.532;2022-12-08T14:48:49;7.63;;;5.97;;
19854;SDS011;10088;47.946;2.532;2022-12-08T14:51:18;37.13;;;16.30;;
19854;SDS011;10088;47.946;2.532;2022-12-08T14:56:37;43.53;;;25.43;;
19854;SDS011;10088;47.946;2.532;2022-12-08T15:01:27;30.97;;;15.77;;
19854;SDS011;10088;47.946;2.532;2022-12-08T15:03:58;4.03;;;3.63;;
19854;SDS011;10088;47.946;2.532;2022-12-08T15:06:24;4.47;;;3.67;;
19854;SDS011;10088;47.946;2.532;2022-12-08T15:08:50;4.93;;;3.40;;
19854;SDS011;10088;47.946;2.532;2022-12-08T15:11:25;5.07;;;3.67;;
19854;SDS011;10088;47.946;2.532;2022-12-08T15:13:51;4.90;;;3.70;;
19854;SDS011;10088;47.946;2.532;2022-12-08T15:18:54;26.97;;;17.60;;
19854;SDS011;10088;47.946;2.532;2022-12-08T15:21:26;6.07;;;5.20;;
19854;SDS011;10088;47.946;2.532;2022-12-08T15:23:52;3.63;;;3.00;;
19854;SDS011;10088;47.946;2.532;2022-12-08T15:26:19;3.03;;;2.73;;
19854;SDS011;10088;47.946;2.532;2022-12-08T15:28:45;4.13;;;3.03;;
19854;SDS011;10088;47.946;2.532;2022-12-08T15:31:10;4.93;;;3.53;;
19854;SDS011;10088;47.946;2.532;2022-12-08T15:33:36;4.43;;;3.10;;
19854;SDS011;10088;47.946;2.532;2022-12-08T15:36:01;4.57;;;3.20;;
19854;SDS011;10088;47.946;2.532;2022-12-08T15:38:27;3.87;;;3.40;;
19854;SDS011;10088;47.946;2.532;2022-12-08T15:40:53;4.40;;;3.60;;
19854;SDS011;10088;47.946;2.532;2022-12-08T15:43:19;4.23;;;3.33;;
19854;SDS011;10088;47.946;2.532;2022-12-08T15:45:44;4.50;;;3.53;;
19854;SDS011;10088;47.946;2.532;2022-12-08T15:48:22;5.97;;;3.90;;
19854;SDS011;10088;47.946;2.532;2022-12-08T15:50:48;4.43;;;3.40;;
19854;SDS011;10088;47.946;2.532;2022-12-08T15:53:14;6.00;;;3.47;;
19854;SDS011;10088;47.946;2.532;2022-12-08T15:55:39;5.73;;;4.13;;
19854;SDS011;10088;47.946;2.532;2022-12-08T15:58:05;5.77;;;3.83;;
19854;SDS011;10088;47.946;2.532;2022-12-08T16:00:34;7.13;;;4.10;;
19854;SDS011;10088;47.946;2.532;2022-12-08T16:03:00;5.60;;;3.70;;
19854;SDS011;10088;47.946;2.532;2022-12-08T16:05:26;6.40;;;4.07;;
19854;SDS011;10088;47.946;2.532;2022-12-08T16:07:52;4.37;;;3.50;;
19854;SDS011;10088;47.946;2.532;2022-12-08T16:10:20;5.53;;;3.87;;
19854;SDS011;10088;47.946;2.532;2022-12-08T16:12:45;6.60;;;4.23;;
19854;SDS011;10088;47.946;2.532;2022-12-08T16:15:30;5.03;;;4.27;;
19854;SDS011;10088;47.946;2.532;2022-12-08T16:17:57;6.70;;;3.70;;
19854;SDS011;10088;47.946;2.532;2022-12-08T16:20:23;5.33;;;3.80;;
19854;SDS011;10088;47.946;2.532;2022-12-08T16:22:48;5.00;;;4.20;;
19854;SDS011;10088;47.946;2.532;2022-12-08T16:25:14;4.50;;;3.30;;
19854;SDS011;10088;47.946;2.532;2022-12-08T16:27:40;5.60;;;3.77;;
19854;SDS011;10088;47.946;2.532;2022-12-08T16:30:06;4.23;;;3.33;;
19854;SDS011;10088;47.946;2.532;2022-12-08T16:32:32;7.37;;;4.23;;
19854;SDS011;10088;47.946;2.532;2022-12-08T16:34:57;9.43;;;4.97;;
19854;SDS011;10088;47.946;2.532;2022-12-08T16:37:23;7.70;;;4.37;;
19854;SDS011;10088;47.946;2.532;2022-12-08T16:40:07;17.10;;;8.27;;
19854;SDS011;10088;47.946;2.532;2022-12-08T16:42:50;9.87;;;7.83;;
19854;SDS011;10088;47.946;2.532;2022-12-08T16:52:16;9.33;;;5.23;;